Time;durP1;ratioP1;P1;durP2;ratioP2;P2;SDS_P1;SDS_P2;PMS_P1;PMS_P2;Temp;Humidity;BMP_temperature;BMP_pressure;BME280_temperature;BME280_humidity;BME280_pressure;Samples;Min_cycle;Max_cycle;Signal;HPM_P1;HPM_P2
2022/09/10 00:00:07;;;;;;;6.37;5.32;;;;;;;18.23;100.00;100028.94;5555735;32;34176;-69
2022/09/10 00:03:12;;;;;;;6.35;5.68;;;;;;;18.17;100.00;100018.28;5569771;32;33953;-69
2022/09/10 00:06:17;;;;;;;7.18;5.80;;;;;;;18.21;100.00;100020.28;5568762;32;34844;-68
2022/09/10 00:09:20;;;;;;;10.68;6.05;;;;;;;18.15;100.00;100015.81;5569672;32;33918;-69
2022/09/10 00:12:22;;;;;;;7.00;6.28;;;;;;;18.11;100.00;100016.50;5569767;32;34318;-69
2022/09/10 00:15:25;;;;;;;6.85;6.15;;;;;;;18.11;100.00;100009.25;5570093;32;34730;-69
2022/09/10 00:18:28;;;;;;;8.65;6.53;;;;;;;18.14;100.00;100018.75;5555791;32;33631;-69
2022/09/10 00:21:30;;;;;;;10.90;7.12;;;;;;;18.04;100.00;100021.97;5569515;32;33861;-69
2022/09/10 00:24:33;;;;;;;7.03;6.32;;;;;;;17.99;100.00;100012.94;5555843;32;32339;-69
2022/09/10 00:27:36;;;;;;;9.07;7.10;;;;;;;18.09;100.00;100011.38;5569441;32;35301;-69
2022/09/10 00:30:45;;;;;;;8.73;7.00;;;;;;;18.07;100.00;100008.09;5569327;32;34648;-69
2022/09/10 00:33:49;;;;;;;8.30;7.00;;;;;;;18.20;100.00;100015.97;5569510;32;34499;-69
2022/09/10 00:36:52;;;;;;;8.23;7.40;;;;;;;18.26;100.00;100011.56;5569237;32;35276;-69
2022/09/10 00:39:55;;;;;;;7.40;6.60;;;;;;;18.24;100.00;100010.97;5569280;32;33997;-69
2022/09/10 00:42:58;;;;;;;9.25;7.05;;;;;;;18.26;100.00;100003.50;5569296;32;33903;-69
2022/09/10 00:46:01;;;;;;;10.93;7.78;;;;;;;18.21;100.00;100000.66;5569058;32;34630;-69
2022/09/10 00:49:12;;;;;;;8.45;7.10;;;;;;;18.19;100.00;100000.09;5569183;32;34056;-69
2022/09/10 00:52:15;;;;;;;11.90;7.70;;;;;;;18.18;100.00;99988.53;5569088;32;33971;-69
2022/09/10 00:55:20;;;;;;;8.38;7.00;;;;;;;18.18;100.00;99990.41;5568984;32;33832;-69
2022/09/10 00:58:25;;;;;;;9.57;7.53;;;;;;;18.18;100.00;100001.97;5568980;32;34307;-69
2022/09/10 01:01:28;;;;;;;8.95;7.20;;;;;;;18.19;100.00;99998.25;5569105;32;34535;-69
2022/09/10 01:04:31;;;;;;;10.00;7.70;;;;;;;18.22;100.00;99989.72;5568754;32;34771;-69
2022/09/10 01:07:35;;;;;;;9.93;7.15;;;;;;;18.16;100.00;99982.56;5568738;32;34225;-69
2022/09/10 01:10:48;;;;;;;8.13;7.32;;;;;;;18.18;100.00;99968.91;5569028;32;34367;-69
2022/09/10 01:14:09;;;;;;;12.30;8.30;;;;;;;18.13;100.00;99971.47;5568547;32;33846;-69
2022/09/10 01:17:27;;;;;;;10.38;8.13;;;;;;;18.08;100.00;99974.81;5568595;32;33942;-69
2022/09/10 01:21:09;;;;;;;11.40;8.05;;;;;;;18.17;100.00;99980.69;5571192;32;34562;-69
2022/09/10 01:24:33;;;;;;;9.13;7.60;;;;;;;18.12;100.00;99975.19;5571318;32;33888;-69
2022/09/10 01:27:43;;;;;;;9.55;8.20;;;;;;;18.10;100.00;99966.56;5571233;32;34049;-69
2022/09/10 01:30:50;;;;;;;;;;;;;;;18.14;100.00;99957.81;5571499;32;33988;-69
2022/09/10 01:34:04;;;;;;;8.80;7.85;;;;;;;18.11;100.00;99960.12;5557544;32;33352;-68
2022/09/10 01:37:17;;;;;;;9.93;7.75;;;;;;;18.20;100.00;99958.78;5571455;32;35328;-68
2022/09/10 01:40:28;;;;;;;9.02;7.70;;;;;;;18.10;100.00;99950.44;5571033;32;34801;-68
2022/09/10 01:43:33;;;;;;;10.95;8.07;;;;;;;18.07;100.00;99949.03;5571418;32;34033;-69
2022/09/10 01:47:02;;;;;;;7.97;6.62;;;;;;;17.99;100.00;99941.28;5570945;32;33960;-68
2022/09/10 01:50:38;;;;;;;8.55;5.95;;;;;;;17.94;100.00;99941.16;5568349;32;33754;-68
2022/09/10 01:53:49;;;;;;;8.90;5.55;;;;;;;17.89;100.00;99935.66;5537018;32;33919;-68
2022/09/10 01:57:22;;;;;;;9.50;4.30;;;;;;;17.94;100.00;99919.69;5570963;32;34014;-69
2022/09/10 02:00:26;;;;;;;6.25;3.35;;;;;;;17.87;100.00;99936.91;5560631;32;33958;-69
2022/09/10 02:03:30;;;;;;;6.32;2.95;;;;;;;17.88;100.00;99943.91;5571091;32;34248;-68
2022/09/10 02:06:38;;;;;;;6.60;2.80;;;;;;;17.90;100.00;99936.47;5557401;32;33874;-67
2022/09/10 02:09:41;;;;;;;6.62;2.85;;;;;;;17.96;100.00;99925.63;5570571;32;33914;-68
2022/09/10 02:12:44;;;;;;;8.23;2.90;;;;;;;17.86;100.00;99911.13;5570649;32;34866;-68
2022/09/10 02:15:50;;;;;;;7.37;2.65;;;;;;;17.74;100.00;99917.25;5570767;32;33914;-68
2022/09/10 02:18:55;;;;;;;5.93;2.28;;;;;;;17.64;100.00;99906.22;5571106;32;34003;-67
2022/09/10 02:21:59;;;;;;;12.98;2.70;;;;;;;17.66;100.00;99920.25;5570728;32;34171;-68
2022/09/10 02:25:03;;;;;;;4.68;2.60;;;;;;;17.52;100.00;99917.91;5570598;32;34432;-67
2022/09/10 02:28:07;;;;;;;4.97;2.40;;;;;;;17.62;100.00;99921.72;5556912;32;34445;-68
2022/09/10 02:31:10;;;;;;;10.88;2.75;;;;;;;17.59;100.00;99921.34;5570072;32;35130;-69
2022/09/10 02:34:14;;;;;;;3.53;2.40;;;;;;;17.49;100.00;99924.53;5570553;32;33843;-68
2022/09/10 02:37:19;;;;;;;3.72;2.20;;;;;;;17.49;100.00;99931.75;5570342;32;33952;-68
2022/09/10 02:40:23;;;;;;;5.53;2.47;;;;;;;17.43;100.00;99928.09;5556907;32;32865;-68
2022/09/10 02:43:27;;;;;;;5.05;2.37;;;;;;;17.25;100.00;99918.19;5570315;32;34162;-68
2022/09/10 02:46:31;;;;;;;3.83;2.17;;;;;;;17.17;100.00;99897.03;5570463;32;33886;-68
2022/09/10 02:49:33;;;;;;;10.23;2.47;;;;;;;17.21;100.00;99900.91;5570900;32;33952;-67
2022/09/10 02:52:36;;;;;;;7.80;2.30;;;;;;;17.14;100.00;99902.00;5570384;32;34180;-68
2022/09/10 02:55:45;;;;;;;3.87;2.00;;;;;;;17.19;100.00;99896.81;5570702;32;35153;-70
2022/09/10 02:58:48;;;;;;;3.50;1.73;;;;;;;17.03;100.00;99900.09;5570624;32;33880;-68
2022/09/10 03:01:53;;;;;;;3.15;1.70;;;;;;;16.97;100.00;99915.19;5570421;32;33944;-68
2022/09/10 03:04:57;;;;;;;2.75;1.40;;;;;;;16.90;100.00;99915.22;5570366;32;34064;-67
2022/09/10 03:08:00;;;;;;;3.62;1.50;;;;;;;16.91;100.00;99916.87;5569941;32;34075;-68
2022/09/10 03:11:04;;;;;;;2.25;1.20;;;;;;;16.82;100.00;99914.69;5570507;32;34006;-68
2022/09/10 03:14:11;;;;;;;4.30;1.10;;;;;;;16.81;100.00;99921.91;5570130;32;34800;-67
2022/09/10 03:17:15;;;;;;;2.45;1.00;;;;;;;16.80;100.00;99930.16;5570235;32;34030;-68
2022/09/10 03:20:20;;;;;;;2.83;1.10;;;;;;;16.75;100.00;99922.78;5570159;32;34611;-67
2022/09/10 03:23:22;;;;;;;3.42;1.10;;;;;;;16.73;100.00;99924.03;5557001;32;34029;-67
2022/09/10 03:26:26;;;;;;;3.95;0.90;;;;;;;16.76;100.00;99913.69;5570107;32;34837;-68
2022/09/10 03:29:29;;;;;;;1.60;0.93;;;;;;;16.67;100.00;99917.69;5570413;32;33995;-68
2022/09/10 03:32:32;;;;;;;2.65;1.10;;;;;;;16.66;100.00;99921.41;5570038;32;33952;-67
2022/09/10 03:35:35;;;;;;;3.15;0.98;;;;;;;16.61;100.00;99923.91;5570044;32;33956;-67
2022/09/10 03:38:39;;;;;;;1.95;0.90;;;;;;;16.58;100.00;99926.19;5569988;32;34149;-67
2022/09/10 03:41:42;;;;;;;2.03;0.70;;;;;;;16.55;100.00;99926.63;5569931;32;33852;-67
2022/09/10 03:44:44;;;;;;;1.80;1.00;;;;;;;16.52;100.00;99927.88;5556177;32;34799;-67
2022/09/10 03:47:47;;;;;;;1.67;0.88;;;;;;;16.53;100.00;99927.66;5570244;32;34678;-68
2022/09/10 03:50:51;;;;;;;4.45;1.30;;;;;;;16.52;100.00;99920.66;5569831;32;33973;-68
2022/09/10 03:53:54;;;;;;;4.20;0.88;;;;;;;16.57;100.00;99920.00;5556162;32;34636;-67
2022/09/10 03:57:01;;;;;;;1.00;0.70;;;;;;;16.46;100.00;99924.19;5569805;32;34690;-67
2022/09/10 04:00:06;;;;;;;1.37;0.70;;;;;;;16.44;100.00;99922.78;5556798;32;34381;-68
2022/09/10 04:03:16;;;;;;;3.97;0.90;;;;;;;16.42;100.00;99925.69;5569751;32;34648;-67
2022/09/10 04:06:19;;;;;;;1.70;0.85;;;;;;;16.41;100.00;99916.00;5562273;31;240739;-66
2022/09/10 04:09:21;;;;;;;3.08;0.73;;;;;;;16.45;100.00;99925.25;5569640;32;34025;-68
2022/09/10 04:12:25;;;;;;;3.92;0.82;;;;;;;16.57;100.00;99922.69;5569584;32;35156;-68
2022/09/10 04:15:29;;;;;;;1.92;0.90;;;;;;;16.52;100.00;99909.94;5569850;32;34137;-67
2022/09/10 04:18:33;;;;;;;2.12;0.70;;;;;;;16.45;100.00;99919.09;5543544;32;34566;-67
2022/09/10 04:21:36;;;;;;;1.45;0.70;;;;;;;16.46;100.00;99918.84;5569597;32;33940;-67
2022/09/10 04:24:39;;;;;;;2.78;0.60;;;;;;;16.52;100.00;99926.03;5569418;32;34454;-67
2022/09/10 04:27:42;;;;;;;2.72;0.80;;;;;;;16.53;100.00;99940.22;5555450;32;34316;-69
2022/09/10 04:30:45;;;;;;;2.10;0.82;;;;;;;16.45;100.00;99935.16;5569395;32;33899;-65
2022/09/10 04:33:48;;;;;;;3.12;1.02;;;;;;;16.54;100.00;99923.13;5569499;32;33876;-66
2022/09/10 04:36:52;;;;;;;1.37;0.70;;;;;;;16.42;100.00;99928.34;5569619;32;34416;-66
2022/09/10 04:39:55;;;;;;;2.12;0.80;;;;;;;16.43;100.00;99935.34;5569238;32;34013;-67
2022/09/10 04:42:58;;;;;;;1.87;0.70;;;;;;;16.46;100.00;99948.31;5555751;32;33848;-68
2022/09/10 04:46:01;;;;;;;1.27;0.70;;;;;;;16.43;100.00;99947.91;5568940;32;34905;-66
2022/09/10 04:49:05;;;;;;;1.27;0.82;;;;;;;16.44;100.00;99957.59;5569064;32;33971;-68
2022/09/10 04:52:12;;;;;;;1.77;0.68;;;;;;;16.41;100.00;99950.00;5568723;32;34003;-67
2022/09/10 04:55:14;;;;;;;6.80;0.90;;;;;;;16.47;99.10;99952.63;5571057;32;34680;-65
2022/09/10 04:58:18;;;;;;;1.30;0.68;;;;;;;16.51;99.90;99956.50;5571407;32;33940;-67
2022/09/10 05:01:21;;;;;;;1.23;0.70;;;;;;;16.49;99.56;99944.38;5571580;32;35202;-66
2022/09/10 05:04:25;;;;;;;2.12;0.80;;;;;;;16.54;99.30;99936.53;5571570;32;34516;-67
2022/09/10 05:07:29;;;;;;;2.05;0.90;;;;;;;16.51;99.30;99948.47;5571010;31;34720;-68
2022/09/10 05:10:34;;;;;;;1.85;0.70;;;;;;;16.55;99.04;99948.88;5557957;32;34602;-65
2022/09/10 05:13:40;;;;;;;4.60;0.93;;;;;;;16.61;99.48;99952.56;5571330;32;34425;-67
2022/09/10 05:16:45;;;;;;;2.00;0.75;;;;;;;16.56;99.03;99938.97;5557403;32;33354;-66
2022/09/10 05:19:48;;;;;;;2.20;0.80;;;;;;;16.58;98.87;99943.13;5571642;32;33920;-68
2022/09/10 05:22:50;;;;;;;1.98;0.90;;;;;;;16.42;100.00;99938.25;5571389;32;35197;-67
2022/09/10 05:25:53;;;;;;;1.70;0.70;;;;;;;16.42;100.00;99941.75;5570902;32;33987;-65
2022/09/10 05:28:58;;;;;;;1.50;0.90;;;;;;;16.49;100.00;99931.00;5571031;32;34090;-65
2022/09/10 05:32:02;;;;;;;1.35;0.70;;;;;;;16.55;100.00;99937.34;5557624;32;34559;-65
2022/09/10 05:35:08;;;;;;;2.85;0.80;;;;;;;16.60;100.00;99942.91;5557456;32;34049;-67
2022/09/10 05:38:11;;;;;;;2.85;0.73;;;;;;;16.57;100.00;99946.78;5571053;32;34641;-68
2022/09/10 05:41:14;;;;;;;1.98;0.57;;;;;;;16.88;99.12;99954.84;5571029;32;35370;-67
2022/09/10 05:44:17;;;;;;;2.58;0.80;;;;;;;17.01;97.45;99955.75;5571031;32;34311;-67
2022/09/10 05:47:20;;;;;;;2.05;0.82;;;;;;;17.05;96.31;99951.59;5570716;32;34118;-69
2022/09/10 05:50:24;;;;;;;3.37;1.10;;;;;;;17.09;96.38;99961.63;5556976;32;32492;-66
2022/09/10 05:53:26;;;;;;;3.50;1.00;;;;;;;17.28;96.15;99952.59;5570945;32;33930;-67
2022/09/10 05:56:30;;;;;;;3.30;0.85;;;;;;;17.36;95.87;99971.09;5570713;32;34007;-67
2022/09/10 05:59:33;;;;;;;1.70;0.70;;;;;;;17.33;95.93;99968.03;5570759;32;34576;-67
2022/09/10 06:02:36;;;;;;;1.05;0.60;;;;;;;17.28;95.25;99959.84;5570800;32;34004;-67
2022/09/10 06:05:40;;;;;;;3.00;0.80;;;;;;;17.34;95.43;99961.59;5569856;32;33914;-67
2022/09/10 06:08:42;;;;;;;2.15;0.90;;;;;;;17.39;95.91;99964.44;5570499;32;34002;-67
2022/09/10 06:11:49;;;;;;;2.45;0.80;;;;;;;17.47;95.06;99963.34;5557109;32;33362;-66
2022/09/10 06:14:52;;;;;;;3.85;0.90;;;;;;;17.46;95.34;99959.03;5570947;32;34630;-67
2022/09/10 06:17:56;;;;;;;1.92;0.80;;;;;;;17.52;95.48;99967.00;5556307;32;33191;-66
2022/09/10 06:21:14;;;;;;;2.47;0.82;;;;;;;17.67;93.08;99961.31;5571008;32;34085;-67
2022/09/10 06:24:21;;;;;;;1.52;0.80;;;;;;;17.55;94.15;99957.69;5570692;32;33956;-67
2022/09/10 06:27:26;;;;;;;1.67;0.90;;;;;;;17.72;94.15;99951.53;5570543;32;34676;-67
2022/09/10 06:30:29;;;;;;;3.97;0.90;;;;;;;17.73;92.57;99955.03;5556606;32;33962;-67
2022/09/10 06:33:32;;;;;;;3.62;0.80;;;;;;;17.77;92.86;99950.84;5556863;32;33871;-66
2022/09/10 06:36:35;;;;;;;2.55;0.73;;;;;;;17.75;92.09;99943.03;5570457;32;34137;-68
2022/09/10 06:39:38;;;;;;;1.98;0.70;;;;;;;17.83;93.30;99954.50;5556811;32;34009;-67
2022/09/10 06:42:41;;;;;;;2.85;1.30;;;;;;;18.04;91.70;99948.66;5570402;32;34093;-68
2022/09/10 06:45:48;;;;;;;4.80;0.77;;;;;;;18.22;90.75;99952.12;5556631;32;33232;-68
2022/09/10 06:48:51;;;;;;;5.45;0.98;;;;;;;18.62;89.64;99943.53;5570511;32;34213;-68
2022/09/10 06:51:55;;;;;;;3.80;0.90;;;;;;;18.49;87.32;99952.53;5570174;32;33950;-68
2022/09/10 06:54:58;;;;;;;1.83;0.80;;;;;;;18.31;88.97;99952.63;5556250;32;33399;-68
2022/09/10 06:58:03;;;;;;;1.42;0.70;;;;;;;18.60;91.23;99962.53;5570681;32;34616;-66
2022/09/10 07:01:10;;;;;;;1.77;0.80;;;;;;;18.98;90.29;99972.06;5556840;32;33844;-67
2022/09/10 07:04:15;;;;;;;2.87;0.80;;;;;;;18.73;90.11;99969.59;5570353;32;34622;-69
2022/09/10 07:07:19;;;;;;;2.70;1.08;;;;;;;18.64;87.13;99973.66;5556488;32;35275;-66
2022/09/10 07:10:21;;;;;;;2.00;0.90;;;;;;;18.73;88.65;99982.22;5556044;32;33237;-67
2022/09/10 07:13:26;;;;;;;3.95;1.00;;;;;;;18.27;89.79;99994.41;5570239;32;33860;-66
2022/09/10 07:16:29;;;;;;;3.12;1.10;;;;;;;18.32;92.75;99977.59;5569678;32;34089;-66
2022/09/10 07:19:35;;;;;;;2.20;0.90;;;;;;;18.33;92.27;99979.25;5570264;32;34092;-67
2022/09/10 07:22:38;;;;;;;2.42;0.90;;;;;;;18.09;92.32;99978.34;5556004;32;33233;-65
2022/09/10 07:25:42;;;;;;;3.85;0.82;;;;;;;18.01;96.83;99997.44;5555596;32;32985;-67
2022/09/10 07:28:45;;;;;;;2.37;1.00;;;;;;;18.05;95.21;99980.66;5556068;32;32575;-66
2022/09/10 07:31:49;;;;;;;1.75;0.73;;;;;;;17.97;92.89;99993.53;5569899;32;34018;-67
2022/09/10 07:34:54;;;;;;;2.30;0.93;;;;;;;18.06;94.74;99994.88;5570361;32;34360;-67
2022/09/10 07:37:59;;;;;;;4.40;1.10;;;;;;;17.75;93.69;99993.19;5570016;32;34284;-66
2022/09/10 07:41:02;;;;;;;3.15;1.20;;;;;;;18.05;93.35;99990.56;5556253;32;33254;-67
2022/09/10 07:44:05;;;;;;;3.40;0.90;;;;;;;18.20;91.70;100002.53;5555950;32;32178;-67
2022/09/10 07:47:08;;;;;;;2.58;0.90;;;;;;;18.29;91.08;100003.06;5570224;32;32730;-68
2022/09/10 07:50:11;;;;;;;1.25;0.90;;;;;;;18.15;92.01;100009.66;5569660;32;34122;-67
2022/09/10 07:53:16;;;;;;;2.17;1.15;;;;;;;18.12;92.55;100010.09;5555805;32;33041;-66
2022/09/10 07:56:22;;;;;;;2.35;1.00;;;;;;;18.45;91.52;100020.37;5556128;32;32314;-66
2022/09/10 07:59:25;;;;;;;1.55;1.00;;;;;;;18.22;91.36;100015.75;5569600;32;34614;-66
2022/09/10 08:02:28;;;;;;;4.32;1.27;;;;;;;18.28;92.61;100017.53;5569689;32;34741;-67
2022/09/10 08:05:31;;;;;;;2.17;1.10;;;;;;;18.45;92.24;100029.28;5569833;32;34410;-66
2022/09/10 08:08:37;;;;;;;1.80;0.90;;;;;;;18.46;92.39;100030.09;5569751;32;33908;-67
2022/09/10 08:11:40;;;;;;;2.30;1.02;;;;;;;18.51;90.87;100020.31;5555669;32;32546;-65
2022/09/10 08:14:44;;;;;;;2.83;0.90;;;;;;;18.56;90.18;100027.72;5555341;32;33574;-65
2022/09/10 08:17:47;;;;;;;3.67;1.40;;;;;;;18.60;90.63;100035.09;5555856;32;33977;-67
2022/09/10 08:20:54;;;;;;;1.52;1.10;;;;;;;18.60;90.25;100036.94;5554740;32;32672;-65
2022/09/10 08:23:57;;;;;;;1.42;1.10;;;;;;;18.88;88.15;100037.16;5556010;32;33927;-67
2022/09/10 08:27:00;;;;;;;2.55;1.10;;;;;;;19.05;88.06;100034.63;5554717;32;32680;-67
2022/09/10 08:30:03;;;;;;;1.92;1.20;;;;;;;19.22;86.99;100037.47;5567618;32;34658;-66
2022/09/10 08:33:06;;;;;;;2.12;1.10;;;;;;;19.26;85.89;100036.78;5569429;32;34508;-69
2022/09/10 08:36:12;;;;;;;3.95;1.30;;;;;;;19.03;87.55;100039.41;5554499;32;33451;-67
2022/09/10 08:39:15;;;;;;;2.00;1.20;;;;;;;19.28;86.76;100037.34;5554898;32;34264;-65
2022/09/10 08:42:23;;;;;;;2.33;1.25;;;;;;;19.51;86.05;100039.25;5568947;32;33850;-67
2022/09/10 08:45:31;;;;;;;9.75;1.35;;;;;;;19.82;82.08;100030.00;5568898;32;33993;-68
2022/09/10 08:48:38;;;;;;;1.98;1.20;;;;;;;21.19;76.95;100036.16;5555073;32;32624;-67
2022/09/10 08:51:56;;;;;;;1.92;1.00;;;;;;;20.98;75.83;100039.53;5554469;32;33535;-68
2022/09/10 08:55:22;;;;;;;4.35;1.10;;;;;;;20.44;79.03;100033.72;5554420;32;33169;-69
2022/09/10 08:58:56;;;;;;;2.17;1.00;;;;;;;20.82;77.15;100031.19;5568579;32;34257;-68
2022/09/10 09:02:23;;;;;;;1.98;1.05;;;;;;;20.99;76.85;100031.22;5568787;32;33994;-67
2022/09/10 09:05:54;;;;;;;1.17;0.88;;;;;;;21.64;72.58;100028.75;5545896;32;34047;-68
2022/09/10 09:09:00;;;;;;;3.53;0.80;;;;;;;20.86;72.09;100038.81;5553401;32;32410;-68
2022/09/10 09:12:17;;;;;;;1.15;0.65;;;;;;;20.78;71.75;100042.69;5553962;32;32862;-68
2022/09/10 09:15:50;;;;;;;1.73;0.75;;;;;;;20.42;73.13;100049.31;5568334;32;34207;-67
2022/09/10 09:19:22;;;;;;;1.30;0.70;;;;;;;20.27;74.47;100044.41;5568388;32;34046;-68
2022/09/10 09:22:54;;;;;;;2.60;0.85;;;;;;;20.23;73.95;100048.66;5553887;32;32388;-67
2022/09/10 09:26:09;;;;;;;2.75;0.70;;;;;;;20.42;73.24;100045.81;5551874;32;33523;-66
2022/09/10 09:29:19;;;;;;;3.35;0.73;;;;;;;20.51;73.05;100050.56;5554374;32;33413;-67
2022/09/10 09:32:22;;;;;;;3.70;0.77;;;;;;;20.59;73.57;100046.66;5568099;32;34019;-68
2022/09/10 09:35:33;;;;;;;2.47;0.60;;;;;;;20.83;72.89;100043.63;5568234;32;34072;-68
2022/09/10 09:38:44;;;;;;;0.90;0.60;;;;;;;21.15;71.87;100043.94;5554352;32;32639;-68
2022/09/10 09:42:00;;;;;;;1.40;0.65;;;;;;;21.71;68.81;100044.78;5556814;32;33255;-68
2022/09/10 09:45:16;;;;;;;1.10;0.52;;;;;;;21.67;68.37;100039.06;5570599;32;33978;-67
2022/09/10 09:48:21;;;;;;;2.92;0.75;;;;;;;22.34;67.16;100041.56;5556546;32;33070;-68
2022/09/10 09:51:29;;;;;;;0.80;0.60;;;;;;;22.28;64.93;100030.94;5570682;32;34354;-66
2022/09/10 09:54:33;;;;;;;1.62;0.55;;;;;;;21.94;66.29;100022.16;5557062;32;34705;-69
2022/09/10 09:58:18;;;;;;;0.70;0.60;;;;;;;21.94;65.59;100020.28;5556507;32;33184;-68
2022/09/10 10:01:23;;;;;;;1.58;0.50;;;;;;;22.27;64.45;100021.22;5570906;32;34357;-68
2022/09/10 10:04:32;;;;;;;2.22;0.80;;;;;;;22.39;64.18;100008.38;5556829;32;34164;-68
2022/09/10 10:07:35;;;;;;;1.05;0.40;;;;;;;22.19;63.86;100006.25;5570325;32;33955;-67
2022/09/10 10:10:38;;;;;;;0.85;0.50;;;;;;;22.14;63.39;100002.69;5570583;32;33945;-67
2022/09/10 10:13:43;;;;;;;1.08;0.68;;;;;;;22.33;62.47;100001.28;5570468;32;33901;-68
2022/09/10 10:16:48;;;;;;;0.40;0.30;;;;;;;22.28;60.65;100006.63;5556801;32;34163;-68
2022/09/10 10:20:00;;;;;;;0.82;0.40;;;;;;;22.56;57.92;99992.06;5557114;32;33907;-66
2022/09/10 10:23:35;;;;;;;1.90;0.47;;;;;;;22.88;55.91;100001.06;5543924;32;32453;-67
2022/09/10 10:26:38;;;;;;;1.48;0.43;;;;;;;22.73;56.80;100003.63;5556713;32;34546;-69
2022/09/10 10:29:50;;;;;;;1.45;0.40;;;;;;;23.27;55.74;99991.63;5556759;32;34144;-68
2022/09/10 10:32:55;;;;;;;0.85;0.50;;;;;;;22.93;55.36;99993.81;5570082;32;34777;-67
2022/09/10 10:36:17;;;;;;;0.90;0.45;;;;;;;23.07;53.80;99991.47;5556213;32;34088;-68
2022/09/10 10:39:39;;;;;;;3.33;0.68;;;;;;;23.63;51.76;99992.66;5556417;32;33895;-67
2022/09/10 10:43:07;;;;;;;1.30;0.40;;;;;;;24.44;50.17;99986.78;5543432;32;32568;-68
2022/09/10 10:46:20;;;;;;;0.80;0.40;;;;;;;24.22;49.62;99990.53;5570271;32;34589;-66
2022/09/10 10:49:52;;;;;;;0.50;0.30;;;;;;;24.35;48.75;99978.34;5570156;32;34759;-68
2022/09/10 10:53:19;;;;;;;1.05;0.30;;;;;;;25.46;45.76;99977.59;5555846;32;32303;-66
2022/09/10 10:56:34;;;;;;;2.33;0.30;;;;;;;27.94;39.84;99967.66;5556447;32;33177;-66
2022/09/10 10:59:54;;;;;;;0.60;0.22;;;;;;;30.27;34.08;99978.16;5569815;32;34080;-67
2022/09/10 11:03:08;;;;;;;0.52;0.30;;;;;;;29.56;35.52;99981.53;5570033;32;34762;-67
2022/09/10 11:06:19;;;;;;;1.27;0.30;;;;;;;30.86;33.90;99979.81;5556332;32;32499;-67
2022/09/10 11:09:31;;;;;;;0.82;0.32;;;;;;;32.56;29.76;99980.03;5549532;32;32630;-68
2022/09/10 11:12:46;;;;;;;0.30;0.20;;;;;;;29.26;34.71;99978.25;5550016;32;32981;-67
2022/09/10 11:16:03;;;;;;;0.75;0.40;;;;;;;31.79;30.39;99974.38;5550615;32;34098;-70
2022/09/10 11:19:22;;;;;;;0.73;0.30;;;;;;;32.95;29.01;99980.97;5549933;32;33124;-70
2022/09/10 11:22:30;;;;;;;0.85;0.40;;;;;;;33.50;27.97;99981.03;5549960;32;32732;-67
2022/09/10 11:25:38;;;;;;;1.17;0.30;;;;;;;31.15;30.79;99967.62;5550485;32;34573;-67
2022/09/10 11:28:54;;;;;;;0.70;0.30;;;;;;;31.30;30.38;99980.91;5549710;32;33142;-68
2022/09/10 11:32:11;;;;;;;0.62;0.30;;;;;;;30.25;32.91;99960.44;5550391;32;34623;-68
2022/09/10 11:35:20;;;;;;;0.37;0.15;;;;;;;30.00;33.09;99964.53;5549560;32;33514;-68
2022/09/10 11:38:47;;;;;;;0.73;0.30;;;;;;;32.03;29.79;99969.28;5549326;32;32475;-68
2022/09/10 11:41:53;;;;;;;1.95;0.40;;;;;;;30.02;33.02;99963.09;5550092;32;34580;-69
2022/09/10 11:45:03;;;;;;;1.27;0.40;;;;;;;30.78;32.34;99949.63;5550161;32;35173;-69
2022/09/10 11:48:36;;;;;;;1.85;0.50;;;;;;;31.86;29.89;99956.31;5550351;32;33992;-68
2022/09/10 11:51:40;;;;;;;1.05;0.37;;;;;;;34.19;26.70;99964.16;5550249;32;34410;-66
2022/09/10 11:54:46;;;;;;;0.60;0.30;;;;;;;31.93;29.62;99944.88;5550295;32;33971;-69
2022/09/10 11:58:10;;;;;;;0.93;0.43;;;;;;;31.47;30.25;99939.84;5549594;32;34237;-69
2022/09/10 12:01:31;;;;;;;3.05;0.50;;;;;;;31.50;30.32;99956.50;5549780;32;32648;-70
2022/09/10 12:04:53;;;;;;;0.85;0.40;;;;;;;32.95;29.59;99945.25;5548170;32;33142;-70
2022/09/10 12:08:16;;;;;;;1.25;0.40;;;;;;;32.76;27.77;99948.37;5553507;32;34063;-67
2022/09/10 12:11:34;;;;;;;0.70;0.30;;;;;;;33.52;27.69;99954.78;5555694;32;33859;-69
2022/09/10 12:14:38;;;;;;;1.20;0.55;;;;;;;33.61;26.76;99954.75;5569272;32;33916;-68
2022/09/10 12:17:45;;;;;;;1.42;0.82;;;;;;;34.87;25.34;99954.53;5569257;32;33990;-68
2022/09/10 12:20:53;;;;;;;1.52;0.40;;;;;;;34.83;24.42;99953.63;5555279;32;32463;-69
2022/09/10 12:23:57;;;;;;;3.17;0.40;;;;;;;34.91;25.31;99946.41;5569608;32;34682;-69
2022/09/10 12:27:02;;;;;;;0.70;0.40;;;;;;;33.56;26.88;99949.44;5569188;32;34029;-68
2022/09/10 12:30:23;;;;;;;2.87;0.60;;;;;;;34.15;25.25;99949.44;5555346;32;33670;-71
2022/09/10 12:33:26;;;;;;;1.87;0.30;;;;;;;35.92;24.41;99953.00;5555163;32;32928;-69
2022/09/10 12:36:29;;;;;;;0.70;0.30;;;;;;;37.29;22.26;99958.16;5569278;32;33914;-65
2022/09/10 12:39:33;;;;;;;1.25;0.47;;;;;;;34.35;24.79;99952.22;5568976;32;35369;-68
2022/09/10 12:42:36;;;;;;;0.73;0.40;;;;;;;31.96;27.16;99943.41;5542271;32;32459;-70
2022/09/10 12:46:16;;;;;;;1.83;0.77;;;;;;;31.82;27.88;99947.13;5554989;32;32464;-68
2022/09/10 12:49:20;;;;;;;0.70;0.40;;;;;;;32.61;26.91;99943.34;5555274;32;32826;-69
2022/09/10 12:52:34;;;;;;;4.03;0.60;;;;;;;31.04;29.42;99932.25;5568942;32;34071;-68
2022/09/10 12:55:52;;;;;;;2.62;0.60;;;;;;;35.05;24.17;99936.66;5568681;32;34019;-69
2022/09/10 12:59:02;;;;;;;0.70;0.32;;;;;;;36.50;22.18;99930.28;5541971;32;32527;-68
2022/09/10 13:02:32;;;;;;;1.98;0.50;;;;;;;34.99;24.54;99934.47;5542059;32;33105;-69
2022/09/10 13:05:44;;;;;;;5.82;0.55;;;;;;;34.44;25.10;99927.38;5568891;32;34598;-68
2022/09/10 13:08:47;;;;;;;2.05;0.70;;;;;;;33.88;26.12;99917.75;5568445;32;34618;-69
2022/09/10 13:11:55;;;;;;;2.67;0.75;;;;;;;36.02;22.80;99917.41;5541811;32;33182;-66
2022/09/10 13:15:01;;;;;;;;;;;;;;;37.48;20.71;99921.44;5556441;32;32525;-68
2022/09/10 13:18:27;;;;;;;1.75;0.40;;;;;;;35.11;24.06;99909.69;5571283;32;34180;-68
2022/09/10 13:21:30;;;;;;;1.52;0.60;;;;;;;35.96;23.11;99916.06;5571099;32;33822;-68
2022/09/10 13:24:33;;;;;;;1.55;0.57;;;;;;;34.35;24.67;99912.88;5571623;32;34194;-69
2022/09/10 13:27:39;;;;;;;3.03;0.50;;;;;;;33.94;25.39;99916.38;5571075;32;33393;-68
2022/09/10 13:30:42;;;;;;;4.70;0.50;;;;;;;36.12;23.37;99921.62;5571075;32;34025;-69
2022/09/10 13:33:48;;;;;;;1.60;0.50;;;;;;;33.32;26.74;99925.28;5571197;32;34681;-67
2022/09/10 13:37:10;;;;;;;1.55;0.65;;;;;;;30.20;30.72;99915.66;5571137;32;34214;-68
2022/09/10 13:40:31;;;;;;;5.95;0.60;;;;;;;27.02;37.78;99920.69;5571014;32;34939;-70
2022/09/10 13:44:02;;;;;;;1.23;0.45;;;;;;;29.53;33.35;99930.22;5557199;32;33077;-69
2022/09/10 13:47:27;;;;;;;1.98;0.60;;;;;;;33.99;26.58;99919.75;5571012;32;33936;-70
2022/09/10 13:50:56;;;;;;;1.73;0.40;;;;;;;34.20;24.79;99908.78;5557298;32;34043;-69
2022/09/10 13:54:12;;;;;;;0.80;0.50;;;;;;;36.74;22.00;99915.59;5569645;32;34004;-71
2022/09/10 13:57:20;;;;;;;0.73;0.40;;;;;;;35.01;23.44;99910.94;5570921;32;34364;-68
2022/09/10 14:00:32;;;;;;;2.55;0.60;;;;;;;34.79;23.90;99897.56;5557328;32;33917;-68
2022/09/10 14:03:37;;;;;;;2.85;0.50;;;;;;;35.74;22.50;99906.31;5570536;32;34013;-69
2022/09/10 14:06:39;;;;;;;1.42;0.37;;;;;;;34.09;23.99;99902.03;5556888;32;33370;-65
2022/09/10 14:09:46;;;;;;;1.50;0.60;;;;;;;32.78;26.22;99893.87;5544170;32;33114;-68
2022/09/10 14:12:51;;;;;;;2.62;0.57;;;;;;;28.90;32.20;99892.59;5570468;32;35154;-69
2022/09/10 14:15:58;;;;;;;4.25;0.50;;;;;;;27.11;35.59;99894.50;5570461;32;34504;-66
2022/09/10 14:19:06;;;;;;;1.10;0.45;;;;;;;25.67;38.66;99889.50;5556261;32;32311;-69
2022/09/10 14:22:21;;;;;;;0.83;0.30;;;;;;;25.83;37.63;99874.78;5570288;32;35160;-68
2022/09/10 14:25:36;;;;;;;5.07;0.45;;;;;;;25.61;38.48;99881.69;5555388;32;33648;-67
2022/09/10 14:28:53;;;;;;;2.87;0.50;;;;;;;25.00;38.61;99879.13;5570110;32;33979;-67
2022/09/10 14:31:56;;;;;;;1.48;0.55;;;;;;;24.31;39.63;99882.38;5570562;32;34621;-68
2022/09/10 14:35:34;;;;;;;1.50;0.50;;;;;;;24.27;40.07;99875.03;5556768;32;34321;-67
2022/09/10 14:38:38;;;;;;;1.02;0.50;;;;;;;24.37;40.34;99866.91;5570391;32;33894;-68
2022/09/10 14:41:42;;;;;;;1.95;0.40;;;;;;;24.15;40.55;99878.81;5556071;32;35537;-68